createdAt,value
2022-09-28T00:02:26.569Z,98668.88
2022-09-28T00:04:54.603Z,98668.50
2022-09-28T00:07:22.539Z,98668.97
2022-09-28T00:09:50.520Z,98659.34
2022-09-28T00:12:18.466Z,98660.06
2022-09-28T00:14:46.535Z,98662.84
2022-09-28T00:17:16.828Z,98663.91
2022-09-28T00:19:46.103Z,98660.03
2022-09-28T00:22:14.025Z,98649.69
2022-09-28T00:24:41.953Z,98638.84
2022-09-28T00:27:09.859Z,98635.56
2022-09-28T00:29:38.491Z,98644.72
2022-09-28T00:32:07.229Z,98653.34
2022-09-28T00:34:36.670Z,98659.44
2022-09-28T00:37:06.513Z,98646.63
2022-09-28T00:39:35.950Z,98648.13
2022-09-28T00:42:04.022Z,98642.50
2022-09-28T00:44:40.087Z,98653.69
2022-09-28T00:47:25.683Z,98646.13
2022-09-28T00:49:55.486Z,98656.50
2022-09-28T00:52:27.164Z,98638.38
2022-09-28T00:54:55.428Z,98659.81
2022-09-28T00:57:23.332Z,98649.81
2022-09-28T00:59:51.501Z,98653.34
2022-09-28T01:02:19.787Z,98655.44
2022-09-28T01:04:47.772Z,98648.16
2022-09-28T01:07:15.739Z,98644.41
2022-09-28T01:09:45.914Z,98641.31
2022-09-28T01:12:13.871Z,98650.63
2022-09-28T01:14:41.829Z,98632.75
2022-09-28T01:17:15.604Z,98643.56
2022-09-28T01:20:14.151Z,98634.84
2022-09-28T01:23:17.305Z,98647.69
2022-09-28T01:25:52.421Z,98645.31
2022-09-28T01:28:22.320Z,98642.38
2022-09-28T01:30:54.855Z,98644.41
2022-09-28T01:33:24.890Z,98643.56
2022-09-28T01:35:54.060Z,98646.03
2022-09-28T01:38:23.175Z,98647.44
2022-09-28T01:40:51.183Z,98646.38
2022-09-28T01:43:21.171Z,98638.16
2022-09-28T01:45:52.044Z,98647.94
2022-09-28T01:48:22.667Z,98640.88
2022-09-28T01:50:51.925Z,98653.19
2022-09-28T01:53:21.768Z,98648.75
2022-09-28T01:55:51.123Z,98611.81
2022-09-28T01:58:20.227Z,98644.53
2022-09-28T02:00:49.242Z,98616.03
2022-09-28T02:03:19.643Z,98643.91
2022-09-28T02:05:49.718Z,98648.03
2022-09-28T02:08:20.058Z,98635.31
2022-09-28T02:10:49.726Z,98642.72
2022-09-28T02:13:18.364Z,98647.78
2022-09-28T02:15:49.877Z,98643.63
2022-09-28T02:18:19.688Z,98650.31
2022-09-28T02:20:57.337Z,98648.81
2022-09-28T02:23:25.241Z,98651.72
2022-09-28T02:25:54.345Z,98653.53
2022-09-28T02:28:22.289Z,98654.00
2022-09-28T02:30:50.226Z,98654.34
2022-09-28T02:33:21.174Z,98659.19
2022-09-28T02:35:49.104Z,98664.13
2022-09-28T02:38:17.037Z,98654.34
2022-09-28T02:40:47.363Z,98665.16
2022-09-28T02:43:17.081Z,98665.66
2022-09-28T02:45:58.346Z,98655.72
2022-09-28T02:48:44.114Z,98660.69
2022-09-28T02:51:20.062Z,98654.88
2022-09-28T02:53:59.284Z,98659.66
2022-09-28T02:56:35.240Z,98652.91
2022-09-28T02:59:08.111Z,98667.53
2022-09-28T03:01:38.287Z,98665.06
2022-09-28T03:04:11.470Z,98662.78
2022-09-28T03:06:41.345Z,98662.19
2022-09-28T03:09:13.012Z,98666.53
2022-09-28T03:11:43.823Z,98677.34
2022-09-28T03:14:11.774Z,98661.34
2022-09-28T03:16:43.089Z,98679.09
2022-09-28T03:19:12.406Z,98680.88
2022-09-28T03:21:40.419Z,98678.41
2022-09-28T03:24:11.196Z,98669.44
2022-09-28T03:26:39.321Z,98675.91
2022-09-28T03:29:07.269Z,98675.91
2022-09-28T03:31:35.372Z,98664.69
2022-09-28T03:34:03.402Z,98676.09
2022-09-28T03:36:32.708Z,98667.59
2022-09-28T03:39:00.761Z,98675.91
2022-09-28T03:41:28.897Z,98684.88
2022-09-28T03:43:56.840Z,98682.66
2022-09-28T03:46:24.762Z,98687.75
2022-09-28T03:48:52.688Z,98685.81
2022-09-28T03:51:20.596Z,98673.44
2022-09-28T03:53:49.903Z,98678.47
2022-09-28T03:56:17.912Z,98678.91
2022-09-28T03:58:45.846Z,98678.72
2022-09-28T04:01:17.524Z,98681.81
2022-09-28T04:03:46.054Z,98682.66
2022-09-28T04:06:13.977Z,98687.00
2022-09-28T04:08:43.115Z,98685.97
2022-09-28T04:11:12.467Z,98681.59
2022-09-28T04:13:40.471Z,98691.38
2022-09-28T04:16:08.571Z,98696.16
2022-09-28T04:18:36.551Z,98693.50
2022-09-28T04:21:06.867Z,98691.00
2022-09-28T04:23:35.059Z,98696.41
2022-09-28T04:26:03.225Z,98692.06
2022-09-28T04:28:50.174Z,98696.75
2022-09-28T04:31:19.218Z,98707.47
2022-09-28T04:33:47.224Z,98691.06
2022-09-28T04:36:15.183Z,98703.59
2022-09-28T04:38:58.317Z,98720.09
2022-09-28T04:41:26.579Z,98706.66
2022-09-28T04:43:55.873Z,98709.88
2022-09-28T04:46:23.781Z,98717.59
2022-09-28T04:48:51.713Z,98723.69
2022-09-28T04:51:19.656Z,98730.94
2022-09-28T04:53:47.598Z,98728.31
2022-09-28T04:56:16.449Z,98736.78
2022-09-28T04:58:46.921Z,98745.84
2022-09-28T05:01:20.512Z,98743.84
2022-09-28T05:03:48.476Z,98742.56
2022-09-28T05:06:16.496Z,98747.84
2022-09-28T05:08:46.811Z,98748.09
2022-09-28T05:11:15.067Z,98744.19
2022-09-28T05:13:43.798Z,98751.34
2022-09-28T05:16:11.768Z,98750.84
2022-09-28T05:18:41.071Z,98751.56
2022-09-28T05:21:11.212Z,98751.28
2022-09-28T05:23:39.136Z,98748.75
2022-09-28T05:26:07.419Z,98742.56
2022-09-28T05:28:35.398Z,98742.75
2022-09-28T05:31:03.667Z,98742.25
2022-09-28T05:33:32.132Z,98746.84
2022-09-28T05:36:01.962Z,98749.53
2022-09-28T05:38:30.225Z,98753.66
2022-09-28T05:40:58.193Z,98745.16
2022-09-28T05:43:26.269Z,98740.16
2022-09-28T05:45:55.839Z,98746.03
2022-09-28T05:48:24.016Z,98746.50
2022-09-28T05:50:52.389Z,98747.38
2022-09-28T05:53:21.776Z,98747.94
2022-09-28T05:55:49.680Z,98749.81
2022-09-28T05:58:17.703Z,98742.38
2022-09-28T06:00:45.651Z,98737.69
2022-09-28T06:03:14.338Z,98739.94
2022-09-28T06:05:42.299Z,98738.31
2022-09-28T06:08:11.664Z,98736.13
2022-09-28T06:10:41.004Z,98739.97
2022-09-28T06:13:08.954Z,98746.50
2022-09-28T06:15:37.010Z,98751.97
2022-09-28T06:18:06.160Z,98729.00
2022-09-28T06:20:35.631Z,98732.25
2022-09-28T06:23:03.577Z,98730.63
2022-09-28T06:25:31.484Z,98733.91
2022-09-28T06:28:01.437Z,98729.97
2022-09-28T06:30:30.443Z,98731.97
2022-09-28T06:32:59.169Z,98734.41
2022-09-28T06:35:28.445Z,98739.09
2022-09-28T06:37:56.344Z,98736.13
2022-09-28T06:40:24.896Z,98736.91
2022-09-28T06:42:56.452Z,98735.69
2022-09-28T06:45:25.951Z,98736.53
2022-09-28T06:47:55.864Z,98736.09
2022-09-28T06:50:24.167Z,98738.31
2022-09-28T06:52:53.521Z,98739.88
2022-09-28T06:55:21.617Z,98738.56
2022-09-28T06:57:49.668Z,98739.41
2022-09-28T07:00:17.753Z,98742.16
2022-09-28T07:02:47.123Z,98745.97
2022-09-28T07:05:15.202Z,98742.41
2022-09-28T07:07:44.820Z,98740.47
2022-09-28T07:10:12.916Z,98741.59
2022-09-28T07:12:41.164Z,98739.94
2022-09-28T07:15:10.172Z,98741.00
2022-09-28T07:17:52.404Z,98735.25
2022-09-28T07:20:26.971Z,98731.94
2022-09-28T07:22:55.559Z,98739.56
2022-09-28T07:25:23.974Z,98734.38
2022-09-28T07:27:51.881Z,98737.34
2022-09-28T07:30:20.322Z,98748.00
2022-09-28T07:32:48.435Z,98743.03
2022-09-28T07:35:16.567Z,98745.50
2022-09-28T07:37:45.920Z,98739.66
2022-09-28T07:40:31.262Z,98740.63
2022-09-28T07:43:05.254Z,98742.50
2022-09-28T07:45:34.175Z,98742.69
2022-09-28T07:48:02.752Z,98745.84
2022-09-28T07:50:30.726Z,98752.84
2022-09-28T07:53:00.551Z,98740.00
2022-09-28T07:55:28.479Z,98745.97
2022-09-28T07:57:59.589Z,98746.50
2022-09-28T08:00:29.833Z,98748.50
2022-09-28T08:03:01.335Z,98751.66
2022-09-28T08:05:32.277Z,98753.44
2022-09-28T08:08:01.747Z,98754.09
2022-09-28T08:10:29.707Z,98747.78
2022-09-28T08:13:00.552Z,98754.03
2022-09-28T08:15:35.102Z,98760.06
2022-09-28T08:18:03.122Z,98752.81
2022-09-28T08:20:51.685Z,98755.44
2022-09-28T08:23:21.450Z,98750.31
2022-09-28T08:25:49.901Z,98750.84
2022-09-28T08:28:18.272Z,98750.91
2022-09-28T08:30:46.356Z,98758.41
2022-09-28T08:33:14.318Z,98764.97
2022-09-28T08:35:42.312Z,98760.50
2022-09-28T08:38:10.712Z,98760.50
2022-09-28T08:40:45.930Z,98748.16
2022-09-28T08:43:22.948Z,98740.75
2022-09-28T08:45:50.944Z,98740.16
2022-09-28T08:48:37.317Z,98740.06
2022-09-28T08:51:07.320Z,98741.19
2022-09-28T08:53:39.254Z,98747.22
2022-09-28T08:56:12.058Z,98736.59
2022-09-28T08:58:42.060Z,98734.31
2022-09-28T09:01:11.795Z,98744.53
2022-09-28T09:03:41.956Z,98747.06
2022-09-28T09:06:18.372Z,98742.31
2022-09-28T09:08:51.726Z,98736.66
2022-09-28T09:11:29.354Z,98721.78
2022-09-28T09:14:29.711Z,98733.69
2022-09-28T09:17:01.058Z,98717.34
2022-09-28T09:19:36.343Z,98738.72
2022-09-28T09:22:11.351Z,98728.47
2022-09-28T09:24:41.891Z,98733.00
2022-09-28T09:27:15.652Z,98733.63
2022-09-28T09:29:51.039Z,98721.94
2022-09-28T09:32:27.288Z,98724.31
2022-09-28T09:35:08.777Z,98723.78
2022-09-28T09:37:54.151Z,98723.53
2022-09-28T09:40:33.577Z,98730.88
2022-09-28T09:43:08.370Z,98723.72
2022-09-28T09:45:43.748Z,98727.31
2022-09-28T09:48:13.862Z,98715.75
2022-09-28T09:50:45.940Z,98720.00
2022-09-28T09:53:17.276Z,98711.81
2022-09-28T09:55:45.838Z,98690.19
2022-09-28T09:58:16.896Z,98716.84
2022-09-28T10:00:45.790Z,98714.16
2022-09-28T10:03:18.914Z,98723.13
2022-09-28T10:05:47.073Z,98704.81
2022-09-28T10:08:16.822Z,98709.34
2022-09-28T10:10:50.015Z,98715.97
2022-09-28T10:13:19.327Z,98714.97
2022-09-28T10:15:49.202Z,98717.59
2022-09-28T10:18:17.842Z,98723.34
2022-09-28T10:20:46.117Z,98716.91
2022-09-28T10:23:17.163Z,98708.19
2022-09-28T10:25:45.205Z,98715.38
2022-09-28T10:28:15.561Z,98704.56
2022-09-28T10:30:45.124Z,98712.38
2022-09-28T10:33:28.587Z,98706.19
2022-09-28T10:35:56.745Z,98713.19
2022-09-28T10:38:24.899Z,98711.91
2022-09-28T10:40:54.521Z,98709.69
2022-09-28T10:43:23.933Z,98711.91
2022-09-28T10:46:01.239Z,98707.69
2022-09-28T10:48:29.267Z,98713.47
2022-09-28T10:51:05.266Z,98709.56
2022-09-28T10:53:33.298Z,98704.38
2022-09-28T10:56:03.114Z,98690.56
2022-09-28T10:58:38.394Z,98692.03
2022-09-28T11:01:12.006Z,98695.16
2022-09-28T11:03:49.820Z,98700.72
2022-09-28T11:06:17.770Z,98703.63
2022-09-28T11:08:46.398Z,98705.22
2022-09-28T11:11:15.125Z,98698.13
2022-09-28T11:13:45.060Z,98698.03
2022-09-28T11:16:30.529Z,98683.81
2022-09-28T11:18:59.169Z,98677.19
2022-09-28T11:21:28.153Z,98681.34
2022-09-28T11:24:02.572Z,98673.75
2022-09-28T11:26:35.919Z,98675.91
2022-09-28T11:29:05.279Z,98676.44
2022-09-28T11:31:36.202Z,98676.44
2022-09-28T11:34:06.633Z,98662.56
2022-09-28T11:36:50.275Z,98679.47
2022-09-28T11:39:20.357Z,98674.16
2022-09-28T11:41:54.513Z,98667.06
2022-09-28T11:44:40.480Z,98664.47
2022-09-28T11:47:34.764Z,98669.81
2022-09-28T11:50:04.306Z,98670.28
2022-09-28T11:52:33.742Z,98658.59
2022-09-28T11:55:03.333Z,98658.31
2022-09-28T11:57:32.684Z,98659.34
2022-09-28T12:00:01.814Z,98654.84
2022-09-28T12:02:35.454Z,98649.72
2022-09-28T12:05:18.361Z,98654.19
2022-09-28T12:07:49.963Z,98654.94
2022-09-28T12:10:19.699Z,98646.34
2022-09-28T12:12:49.043Z,98645.03
2022-09-28T12:15:19.774Z,98632.00
2022-09-28T12:17:50.815Z,98657.06
2022-09-28T12:20:22.277Z,98639.63
2022-09-28T12:22:55.738Z,98634.00
2022-09-28T12:25:24.111Z,98634.50
2022-09-28T12:27:54.024Z,98624.81
2022-09-28T12:30:22.551Z,98619.88
2022-09-28T12:32:53.923Z,98618.81
2022-09-28T12:35:28.840Z,98616.38
2022-09-28T12:38:08.974Z,98624.47
2022-09-28T12:40:43.290Z,98627.25
2022-09-28T12:43:28.323Z,98624.13
2022-09-28T12:46:12.615Z,98617.47
2022-09-28T12:49:43.643Z,98624.88
2022-09-28T12:51:49.831Z,98622.56
2022-09-28T12:54:26.231Z,98621.50
2022-09-28T12:57:00.419Z,98625.28
2022-09-28T12:59:30.511Z,98597.75
2022-09-28T13:02:22.948Z,98618.69
2022-09-28T13:05:02.244Z,98610.34
2022-09-28T13:07:32.354Z,98613.06
2022-09-28T13:10:06.897Z,98616.78
2022-09-28T13:12:41.558Z,98609.28
2022-09-28T13:15:24.910Z,98605.28
2022-09-28T13:17:56.961Z,98619.34
2022-09-28T13:20:35.815Z,98610.16
2022-09-28T13:23:11.681Z,98610.09
2022-09-28T13:25:41.504Z,98597.94
2022-09-28T13:28:10.676Z,98611.84
2022-09-28T13:30:40.356Z,98593.47
2022-09-28T13:33:08.812Z,98595.06
2022-09-28T13:35:38.196Z,98617.13
2022-09-28T13:38:30.530Z,98613.22
2022-09-28T13:41:12.175Z,98615.00
2022-09-28T13:43:48.064Z,98618.38
2022-09-28T13:46:20.244Z,98611.06
2022-09-28T13:48:50.758Z,98607.28
2022-09-28T13:51:33.939Z,98606.59
2022-09-28T13:54:11.190Z,98611.81
2022-09-28T13:56:45.455Z,98605.69
2022-09-28T13:59:17.784Z,98611.41
2022-09-28T14:01:47.729Z,98610.53
2022-09-28T14:04:19.038Z,98609.88
2022-09-28T14:06:55.541Z,98614.69
2022-09-28T14:09:42.466Z,98614.59
2022-09-28T14:12:30.485Z,98618.47
2022-09-28T14:14:58.506Z,98627.84
2022-09-28T14:17:59.836Z,98624.00
2022-09-28T14:20:28.207Z,98622.91
2022-09-28T14:23:31.347Z,98608.16
2022-09-28T14:26:16.117Z,98627.63
2022-09-28T14:28:50.097Z,98634.97
2022-09-28T14:31:22.655Z,98636.97
2022-09-28T14:33:56.924Z,98638.44
2022-09-28T14:36:47.476Z,98643.50
2022-09-28T14:39:39.530Z,98642.66
2022-09-28T14:42:12.827Z,98621.44
2022-09-28T14:45:18.169Z,98641.03
2022-09-28T14:47:46.339Z,98644.50
2022-09-28T14:50:23.522Z,98635.25
2022-09-28T14:52:52.400Z,98645.84
2022-09-28T14:55:25.550Z,98647.66
2022-09-28T14:57:54.282Z,98644.53
2022-09-28T15:00:23.418Z,98620.41
2022-09-28T15:02:52.746Z,98634.25
2022-09-28T15:05:24.779Z,98648.00
2022-09-28T15:07:53.450Z,98647.34
2022-09-28T15:10:28.307Z,98643.06
2022-09-28T15:12:57.203Z,98648.09
2022-09-28T15:15:31.777Z,98641.03
2022-09-28T15:18:05.763Z,98645.25
2022-09-28T15:20:35.444Z,98654.69
2022-09-28T15:23:03.403Z,98653.41
2022-09-28T15:25:33.998Z,98645.81
2022-09-28T15:28:04.678Z,98645.88
2022-09-28T15:30:33.208Z,98650.38
2022-09-28T15:33:15.734Z,98648.25
2022-09-28T15:35:43.676Z,98647.25
2022-09-28T15:38:11.951Z,98656.41
2022-09-28T15:40:41.371Z,98652.41
2022-09-28T15:43:24.223Z,98652.59
2022-09-28T15:46:02.952Z,98641.25
2022-09-28T15:48:32.029Z,98659.94
2022-09-28T15:51:02.578Z,98655.91
2022-09-28T15:53:31.382Z,98660.13
2022-09-28T15:56:09.693Z,98656.94
2022-09-28T15:58:38.477Z,98657.56
2022-09-28T16:01:29.417Z,98647.53
2022-09-28T16:03:57.394Z,98664.78
2022-09-28T16:06:25.427Z,98664.34
2022-09-28T16:08:53.866Z,98662.75
2022-09-28T16:11:26.290Z,98658.44
2022-09-28T16:14:01.658Z,98656.28
2022-09-28T16:16:31.274Z,98673.25
2022-09-28T16:19:00.653Z,98676.53
2022-09-28T16:21:44.497Z,98676.53
2022-09-28T16:24:20.980Z,98654.13
2022-09-28T16:26:50.387Z,98683.63
2022-09-28T16:29:29.081Z,98685.25
2022-09-28T16:31:57.050Z,98679.75
2022-09-28T16:34:25.862Z,98683.00
2022-09-28T16:36:53.821Z,98683.00
2022-09-28T16:39:21.980Z,98682.41
2022-09-28T16:41:53.889Z,98674.75
2022-09-28T16:44:24.641Z,98653.13
2022-09-28T16:46:53.947Z,98659.88
2022-09-28T16:49:21.881Z,98672.19
2022-09-28T16:51:49.919Z,98686.06
2022-09-28T16:54:36.583Z,98687.13
2022-09-28T16:57:06.709Z,98684.88
2022-09-28T16:59:34.640Z,98694.94
2022-09-28T17:02:02.642Z,98700.13
2022-09-28T17:04:30.615Z,98701.22
2022-09-28T17:06:58.551Z,98697.66
2022-09-28T17:09:26.721Z,98685.94
2022-09-28T17:11:56.188Z,98700.22
2022-09-28T17:14:27.151Z,98693.13
2022-09-28T17:17:08.157Z,98695.34
2022-09-28T17:19:43.198Z,98693.16
2022-09-28T17:22:11.144Z,98694.81
2022-09-28T17:24:39.967Z,98690.72
2022-09-28T17:27:08.240Z,98694.00
2022-09-28T17:29:37.603Z,98693.69
2022-09-28T17:32:08.375Z,98695.84
2022-09-28T17:34:36.376Z,98699.97
2022-09-28T17:37:04.321Z,98697.50
2022-09-28T17:39:32.227Z,98701.03
2022-09-28T17:42:00.222Z,98695.84
2022-09-28T17:44:28.418Z,98699.66
2022-09-28T17:46:57.737Z,98696.94
2022-09-28T17:49:25.748Z,98704.03
2022-09-28T17:51:54.253Z,98705.69
2022-09-28T17:54:22.595Z,98705.72
2022-09-28T17:56:50.808Z,98698.69
2022-09-28T17:59:19.027Z,98701.16
2022-09-28T18:01:48.259Z,98709.09
2022-09-28T18:04:39.804Z,98710.19
2022-09-28T18:07:05.766Z,98708.84
2022-09-28T18:09:33.694Z,98708.56
2022-09-28T18:12:02.267Z,98716.69
2022-09-28T18:14:30.212Z,98716.38
2022-09-28T18:16:58.179Z,98720.41
2022-09-28T18:19:31.711Z,98714.84
2022-09-28T18:22:01.428Z,98720.22
2022-09-28T18:24:29.592Z,98718.00
2022-09-28T18:26:57.566Z,98723.38
2022-09-28T18:29:26.708Z,98723.56
2022-09-28T18:31:56.034Z,98725.94
2022-09-28T18:34:24.025Z,98722.03
2022-09-28T18:36:53.499Z,98727.91
2022-09-28T18:39:21.803Z,98726.22
2022-09-28T18:41:49.752Z,98731.03
2022-09-28T18:44:17.711Z,98735.06
2022-09-28T18:46:45.726Z,98737.47
2022-09-28T18:49:13.672Z,98691.69
2022-09-28T18:51:41.686Z,98733.00
2022-09-28T18:54:11.018Z,98732.63
2022-09-28T18:56:38.965Z,98735.03
2022-09-28T18:59:11.240Z,98733.91
2022-09-28T19:01:41.681Z,98733.91
2022-09-28T19:04:10.458Z,98730.63
2022-09-28T19:06:40.709Z,98737.69
2022-09-28T19:09:10.340Z,98744.22
2022-09-28T19:11:38.310Z,98738.84
2022-09-28T19:14:06.285Z,98737.81
2022-09-28T19:16:34.774Z,98736.75
2022-09-28T19:19:03.411Z,98733.25
2022-09-28T19:21:31.505Z,98756.00
2022-09-28T19:24:01.434Z,98760.44
2022-09-28T19:26:30.863Z,98760.78
2022-09-28T19:28:59.009Z,98741.50
2022-09-28T19:31:27.166Z,98764.88
2022-09-28T19:33:55.127Z,98765.19
2022-09-28T19:36:24.263Z,98763.84
2022-09-28T19:38:52.778Z,98763.31
2022-09-28T19:41:39.099Z,98760.56
2022-09-28T19:44:09.862Z,98760.25
2022-09-28T19:46:38.868Z,98764.34
2022-09-28T19:49:10.373Z,98766.03
2022-09-28T19:51:46.915Z,98765.50
2022-09-28T19:54:30.204Z,98761.47
2022-09-28T19:57:01.378Z,98762.91
2022-09-28T19:59:30.766Z,98766.78
2022-09-28T20:02:01.351Z,98761.34
2022-09-28T20:04:29.591Z,98763.31
2022-09-28T20:06:57.527Z,98761.94
2022-09-28T20:09:25.470Z,98763.91
2022-09-28T20:11:53.406Z,98765.28
2022-09-28T20:14:23.426Z,98766.41
2022-09-28T20:16:55.227Z,98777.38
2022-09-28T20:19:23.475Z,98777.81
2022-09-28T20:21:51.493Z,98776.22
2022-09-28T20:24:19.451Z,98780.59
2022-09-28T20:26:49.615Z,98782.25
2022-09-28T20:29:17.640Z,98779.53
2022-09-28T20:31:45.709Z,98780.34
2022-09-28T20:34:15.079Z,98778.97
2022-09-28T20:36:44.716Z,98779.56
2022-09-28T20:39:12.912Z,98772.44
2022-09-28T20:41:41.203Z,98771.38
2022-09-28T20:44:09.892Z,98767.56
2022-09-28T20:46:38.116Z,98765.09
2022-09-28T20:49:07.215Z,98764.84
2022-09-28T20:51:36.506Z,98763.75
2022-09-28T20:54:04.959Z,98766.25
2022-09-28T20:56:37.621Z,98756.34
2022-09-28T20:59:05.775Z,98777.06
2022-09-28T21:01:33.892Z,98771.00
2022-09-28T21:04:02.532Z,98759.38
2022-09-28T21:06:31.473Z,98774.97
2022-09-28T21:09:00.881Z,98770.03
2022-09-28T21:11:29.562Z,98768.88
2022-09-28T21:13:58.940Z,98772.06
2022-09-28T21:16:27.136Z,98771.44
2022-09-28T21:18:55.169Z,98774.09
2022-09-28T21:21:23.426Z,98766.63
2022-09-28T21:23:53.353Z,98774.78
2022-09-28T21:26:25.945Z,98772.84
2022-09-28T21:28:54.149Z,98784.50
2022-09-28T21:31:27.535Z,98767.28
2022-09-28T21:33:56.672Z,98773.50
2022-09-28T21:36:24.647Z,98779.72
2022-09-28T21:38:53.536Z,98781.72
2022-09-28T21:41:22.856Z,98779.97
2022-09-28T21:43:50.893Z,98777.44
2022-09-28T21:46:18.952Z,98769.47
2022-09-28T21:48:46.917Z,98776.44
2022-09-28T21:51:15.230Z,98770.75
2022-09-28T21:53:43.741Z,98781.88
2022-09-28T21:56:13.067Z,98787.31
2022-09-28T21:58:42.356Z,98775.28
2022-09-28T22:01:12.204Z,98781.78
2022-09-28T22:03:40.217Z,98778.44
2022-09-28T22:06:08.593Z,98774.00
2022-09-28T22:08:36.736Z,98767.38
2022-09-28T22:11:06.558Z,98772.03
2022-09-28T22:13:35.728Z,98770.03
2022-09-28T22:16:05.184Z,98769.25
2022-09-28T22:18:34.033Z,98763.72
2022-09-28T22:21:02.085Z,98759.34
2022-09-28T22:23:30.119Z,98758.53
2022-09-28T22:26:01.557Z,98765.84
2022-09-28T22:28:29.636Z,98745.59
2022-09-28T22:30:57.693Z,98750.06
2022-09-28T22:33:27.171Z,98755.97
2022-09-28T22:35:55.515Z,98754.28
2022-09-28T22:38:24.943Z,98757.53
2022-09-28T22:40:54.261Z,98749.31
2022-09-28T22:43:23.442Z,98751.94
2022-09-28T22:45:51.406Z,98739.84
2022-09-28T22:48:19.363Z,98742.56
2022-09-28T22:50:51.804Z,98737.66
2022-09-28T22:53:19.928Z,98734.75
2022-09-28T22:55:47.888Z,98732.06
2022-09-28T22:58:15.856Z,98735.34
2022-09-28T23:00:44.537Z,98751.63
2022-09-28T23:03:12.583Z,98750.22
2022-09-28T23:05:40.569Z,98746.34
2022-09-28T23:08:10.604Z,98749.00
2022-09-28T23:10:38.617Z,98753.00
2022-09-28T23:13:06.544Z,98760.81
2022-09-28T23:15:34.486Z,98756.72
2022-09-28T23:18:02.465Z,98746.34
2022-09-28T23:20:30.408Z,98752.25
2022-09-28T23:22:58.409Z,98747.28
2022-09-28T23:25:29.046Z,98742.34
2022-09-28T23:27:57.005Z,98737.97
2022-09-28T23:30:25.710Z,98738.22
2022-09-28T23:32:54.248Z,98742.34
2022-09-28T23:35:22.208Z,98745.06
2022-09-28T23:37:53.184Z,98740.69
2022-09-28T23:40:21.206Z,98745.66
2022-09-28T23:42:50.622Z,98742.34
2022-09-28T23:45:18.558Z,98738.44
2022-09-28T23:47:46.567Z,98736.78
2022-09-28T23:50:14.551Z,98724.16
2022-09-28T23:52:42.513Z,98734.00
2022-09-28T23:55:10.687Z,98727.75
2022-09-28T23:57:41.110Z,98726.94
